createdAt,value
2023-02-09T00:01:35.248Z,103334.13
2023-02-09T00:04:04.985Z,103328.44
2023-02-09T00:06:31.770Z,103319.44
2023-02-09T00:08:59.073Z,103321.75
2023-02-09T00:11:47.004Z,103319.72
2023-02-09T00:14:15.676Z,103307.63
2023-02-09T00:16:42.780Z,103306.50
2023-02-09T00:19:09.817Z,103306.84
2023-02-09T00:21:40.538Z,103303.28
2023-02-09T00:24:08.048Z,103311.72
2023-02-09T00:26:34.712Z,103306.66
2023-02-09T00:29:01.369Z,103307.94
2023-02-09T00:31:28.116Z,103306.31
2023-02-09T00:33:54.810Z,103301.38
2023-02-09T00:36:21.768Z,103290.00
2023-02-09T00:38:48.424Z,103293.44
2023-02-09T00:41:16.955Z,103295.06
2023-02-09T00:43:43.813Z,103292.00
2023-02-09T00:46:10.611Z,103287.25
2023-02-09T00:48:37.360Z,103289.38
2023-02-09T00:51:04.104Z,103284.63
2023-02-09T00:53:30.776Z,103292.72
2023-02-09T00:55:57.534Z,103286.16
2023-02-09T00:58:24.190Z,103294.34
2023-02-09T01:00:50.969Z,103286.69
2023-02-09T01:03:17.681Z,103287.44
2023-02-09T01:05:44.534Z,103275.00
2023-02-09T01:08:11.670Z,103288.22
2023-02-09T01:10:39.503Z,103279.78
2023-02-09T01:13:06.416Z,103274.09
2023-02-09T01:15:33.164Z,103278.50
2023-02-09T01:17:59.870Z,103262.75
2023-02-09T01:20:27.037Z,103264.97
2023-02-09T01:22:53.787Z,103267.88
2023-02-09T01:25:20.424Z,103275.22
2023-02-09T01:27:47.091Z,103276.31
2023-02-09T01:30:14.075Z,103259.31
2023-02-09T01:32:40.851Z,103262.47
2023-02-09T01:35:07.759Z,103254.72
2023-02-09T01:37:35.483Z,103255.44
2023-02-09T01:40:02.493Z,103238.03
2023-02-09T01:42:29.238Z,103249.31
2023-02-09T01:45:21.483Z,103237.56
2023-02-09T01:47:54.697Z,103231.25
2023-02-09T01:50:22.302Z,103226.69
2023-02-09T01:52:49.511Z,103224.34
2023-02-09T01:55:20.214Z,103223.59
2023-02-09T01:57:50.907Z,103218.31
2023-02-09T02:00:19.798Z,103214.19
2023-02-09T02:02:56.021Z,103212.81
2023-02-09T02:05:23.794Z,103203.53
2023-02-09T02:07:57.180Z,103201.19
2023-02-09T02:10:24.144Z,103198.94
2023-02-09T02:12:53.464Z,103193.03
2023-02-09T02:15:20.347Z,103197.41
2023-02-09T02:17:56.259Z,103187.78
2023-02-09T02:21:03.659Z,103185.38
2023-02-09T02:23:59.589Z,103185.72
2023-02-09T02:26:51.020Z,103186.00
2023-02-09T02:29:39.805Z,103184.28
2023-02-09T02:32:28.942Z,103184.38
2023-02-09T02:35:02.096Z,103172.75
2023-02-09T02:37:49.169Z,103181.28
2023-02-09T02:40:42.932Z,103169.41
2023-02-09T02:43:22.333Z,103171.75
2023-02-09T02:46:14.774Z,103159.78
2023-02-09T02:48:46.013Z,103162.72
2023-02-09T02:51:29.944Z,103168.41
2023-02-09T02:53:58.244Z,103166.53
2023-02-09T02:56:29.747Z,103149.69
2023-02-09T02:58:58.895Z,103151.28
2023-02-09T03:01:29.494Z,103159.63
2023-02-09T03:03:56.943Z,103154.63
2023-02-09T03:06:23.633Z,103149.03
2023-02-09T03:08:57.681Z,103138.59
2023-02-09T03:11:28.544Z,103142.22
2023-02-09T03:14:32.871Z,103147.31
2023-02-09T03:17:13.993Z,103142.38
2023-02-09T03:20:02.821Z,103147.84
2023-02-09T03:22:33.568Z,103140.75
2023-02-09T03:25:08.458Z,103140.44
2023-02-09T03:27:41.621Z,103132.63
2023-02-09T03:30:10.701Z,103135.56
2023-02-09T03:32:39.640Z,103136.84
2023-02-09T03:35:07.489Z,103117.41
2023-02-09T03:37:34.212Z,103124.88
2023-02-09T03:40:00.910Z,103122.66
2023-02-09T03:42:27.573Z,103120.03
2023-02-09T03:44:54.280Z,103122.84
2023-02-09T03:47:20.959Z,103123.63
2023-02-09T03:49:47.601Z,103118.31
2023-02-09T03:52:16.022Z,103125.88
2023-02-09T03:54:42.950Z,103120.88
2023-02-09T03:57:10.490Z,103121.56
2023-02-09T03:59:37.905Z,103121.91
2023-02-09T04:02:06.755Z,103115.34
2023-02-09T04:04:33.637Z,103114.56
2023-02-09T04:07:00.535Z,103113.63
2023-02-09T04:09:30.552Z,103106.78
2023-02-09T04:11:57.202Z,103105.63
2023-02-09T04:14:23.856Z,103107.47
2023-02-09T04:16:50.591Z,103108.16
2023-02-09T04:19:17.265Z,103100.78
2023-02-09T04:21:44.074Z,103098.78
2023-02-09T04:24:10.888Z,103097.19
2023-02-09T04:26:37.585Z,103097.81
2023-02-09T04:29:04.791Z,103099.69
2023-02-09T04:31:31.750Z,103096.66
2023-02-09T04:33:58.545Z,103097.06
2023-02-09T04:36:25.212Z,103092.06
2023-02-09T04:38:51.877Z,103094.56
2023-02-09T04:41:21.600Z,103103.03
2023-02-09T04:43:48.709Z,103103.03
2023-02-09T04:46:16.871Z,103099.97
2023-02-09T04:48:43.700Z,103104.47
2023-02-09T04:51:10.486Z,103109.97
2023-02-09T04:53:37.335Z,103103.47
2023-02-09T04:56:07.350Z,103096.50
2023-02-09T04:58:52.620Z,103101.09
2023-02-09T05:01:22.105Z,103089.97
2023-02-09T05:03:49.024Z,103097.44
2023-02-09T05:06:16.173Z,103087.28
2023-02-09T05:08:42.823Z,103078.47
2023-02-09T05:11:09.525Z,103080.59
2023-02-09T05:13:36.190Z,103082.69
2023-02-09T05:16:06.966Z,103090.88
2023-02-09T05:18:33.867Z,103082.53
2023-02-09T05:21:00.565Z,103081.16
2023-02-09T05:23:27.231Z,103079.22
2023-02-09T05:25:54.767Z,103079.06
2023-02-09T05:28:21.490Z,103082.25
2023-02-09T05:30:53.752Z,103074.06
2023-02-09T05:33:21.910Z,103073.09
2023-02-09T05:35:48.941Z,103070.72
2023-02-09T05:38:22.350Z,103070.75
2023-02-09T05:40:49.371Z,103072.88
2023-02-09T05:43:16.248Z,103077.63
2023-02-09T05:45:43.652Z,103075.44
2023-02-09T05:48:10.424Z,103071.84
2023-02-09T05:50:37.176Z,103068.03
2023-02-09T05:53:07.704Z,103063.19
2023-02-09T05:55:34.498Z,103062.75
2023-02-09T05:58:01.158Z,103069.84
2023-02-09T06:00:29.887Z,103067.25
2023-02-09T06:02:57.331Z,103073.41
2023-02-09T06:05:24.250Z,103071.38
2023-02-09T06:07:51.187Z,103071.56
2023-02-09T06:10:18.685Z,103071.47
2023-02-09T06:12:45.436Z,103076.97
2023-02-09T06:15:12.578Z,103077.34
2023-02-09T06:17:39.175Z,103071.09
2023-02-09T06:20:06.397Z,103073.63
2023-02-09T06:22:33.067Z,103076.63
2023-02-09T06:25:02.470Z,103081.91
2023-02-09T06:27:29.132Z,103085.03
2023-02-09T06:29:55.772Z,103079.81
2023-02-09T06:32:22.873Z,103075.31
2023-02-09T06:34:49.528Z,103080.59
2023-02-09T06:37:16.173Z,103073.72
2023-02-09T06:39:42.832Z,103072.81
2023-02-09T06:42:12.516Z,103074.44
2023-02-09T06:44:39.188Z,103080.13
2023-02-09T06:47:05.883Z,103083.69
2023-02-09T06:49:32.853Z,103088.00
2023-02-09T06:51:59.613Z,103085.34
2023-02-09T06:54:28.421Z,103082.00
2023-02-09T06:56:55.427Z,103079.38
2023-02-09T06:59:22.066Z,103078.94
2023-02-09T07:01:54.773Z,103083.38
2023-02-09T07:04:22.774Z,103082.91
2023-02-09T07:06:52.524Z,103078.78
2023-02-09T07:09:19.185Z,103088.66
2023-02-09T07:11:45.812Z,103082.09
2023-02-09T07:14:12.491Z,103089.66
2023-02-09T07:16:39.232Z,103087.84
2023-02-09T07:19:05.828Z,103083.69
2023-02-09T07:21:32.504Z,103081.56
2023-02-09T07:23:59.347Z,103082.63
2023-02-09T07:26:26.017Z,103084.88
2023-02-09T07:28:52.933Z,103084.25
2023-02-09T07:31:19.820Z,103082.91
2023-02-09T07:33:46.561Z,103079.91
2023-02-09T07:36:14.845Z,103075.97
2023-02-09T07:38:41.886Z,103069.13
2023-02-09T07:41:14.238Z,103072.31
2023-02-09T07:43:40.861Z,103068.13
2023-02-09T07:46:08.504Z,103069.38
2023-02-09T07:48:35.915Z,103068.03
2023-02-09T07:51:02.604Z,103080.25
2023-02-09T07:53:29.738Z,103079.97
2023-02-09T07:55:56.623Z,103079.84
2023-02-09T07:58:23.726Z,103075.31
2023-02-09T08:00:51.192Z,103072.38
2023-02-09T08:03:23.142Z,103073.44
2023-02-09T08:05:55.782Z,103075.44
2023-02-09T08:08:22.593Z,103075.44
2023-02-09T08:10:49.406Z,103075.72
2023-02-09T08:13:16.329Z,103057.88
2023-02-09T08:15:52.600Z,103060.03
2023-02-09T08:18:25.004Z,103061.06
2023-02-09T08:20:52.782Z,103063.03
2023-02-09T08:23:24.933Z,103058.78
2023-02-09T08:25:51.907Z,103059.38
2023-02-09T08:28:34.892Z,103052.34
2023-02-09T08:31:08.773Z,103053.94
2023-02-09T08:33:35.512Z,103045.59
2023-02-09T08:36:02.185Z,103038.75
2023-02-09T08:38:31.952Z,103037.63
2023-02-09T08:41:02.496Z,103034.66
2023-02-09T08:43:29.166Z,103037.16
2023-02-09T08:45:55.843Z,103037.81
2023-02-09T08:48:22.716Z,103037.78
2023-02-09T08:50:49.400Z,103032.59
2023-02-09T08:53:16.265Z,103041.66
2023-02-09T08:55:43.161Z,103035.50
2023-02-09T08:58:09.869Z,103047.66
2023-02-09T09:00:36.994Z,103048.16
2023-02-09T09:03:07.099Z,103050.03
2023-02-09T09:05:34.574Z,103048.91
2023-02-09T09:08:01.613Z,103052.66
2023-02-09T09:10:28.755Z,103049.53
2023-02-09T09:12:55.383Z,103041.22
2023-02-09T09:15:22.044Z,103042.44
2023-02-09T09:17:48.678Z,103040.53
2023-02-09T09:20:15.405Z,103036.97
2023-02-09T09:22:42.232Z,103033.13
2023-02-09T09:25:09.052Z,103018.25
2023-02-09T09:27:36.582Z,103021.47
2023-02-09T09:30:04.718Z,103020.81
2023-02-09T09:32:31.495Z,103027.88
2023-02-09T09:34:59.190Z,103019.78
2023-02-09T09:37:26.750Z,103024.44
2023-02-09T09:39:53.463Z,103016.38
2023-02-09T09:42:28.165Z,103009.97
2023-02-09T09:44:58.187Z,103009.34
2023-02-09T09:47:39.637Z,103014.41
2023-02-09T09:50:14.307Z,103009.81
2023-02-09T09:52:43.732Z,103008.59
2023-02-09T09:55:21.204Z,103003.25
2023-02-09T09:57:48.646Z,102998.75
2023-02-09T10:00:25.195Z,102994.22
2023-02-09T10:02:52.297Z,102993.84
2023-02-09T10:05:25.709Z,102987.13
2023-02-09T10:08:13.616Z,102986.31
2023-02-09T10:11:06.903Z,102982.91
2023-02-09T10:13:40.628Z,102988.09
2023-02-09T10:16:17.053Z,102977.91
2023-02-09T10:18:44.649Z,102959.72
2023-02-09T10:21:13.597Z,102964.19
2023-02-09T10:23:52.102Z,102963.06
2023-02-09T10:26:24.258Z,102959.91
2023-02-09T10:28:54.374Z,102949.50
2023-02-09T10:31:21.021Z,102950.69
2023-02-09T10:33:52.411Z,102955.72
2023-02-09T10:36:24.466Z,102951.63
2023-02-09T10:38:52.067Z,102948.06
2023-02-09T10:41:19.495Z,102949.56
2023-02-09T10:43:51.305Z,102949.16
2023-02-09T10:46:19.439Z,102942.50
2023-02-09T10:48:46.996Z,102931.03
2023-02-09T10:51:15.944Z,102923.00
2023-02-09T10:54:04.627Z,102906.28
2023-02-09T10:56:44.394Z,102895.28
2023-02-09T10:59:16.221Z,102889.09
2023-02-09T11:01:44.348Z,102898.47
2023-02-09T11:04:22.973Z,102893.31
2023-02-09T11:06:58.376Z,102886.88
2023-02-09T11:09:31.960Z,102878.91
2023-02-09T11:12:06.591Z,102883.63
2023-02-09T11:14:33.545Z,102890.81
2023-02-09T11:17:06.295Z,102872.75
2023-02-09T11:19:41.969Z,102875.63
2023-02-09T11:22:13.337Z,102879.47
2023-02-09T11:25:00.270Z,102882.41
2023-02-09T11:27:26.973Z,102876.56
2023-02-09T11:30:00.498Z,102877.34
2023-02-09T11:32:34.952Z,102873.63
2023-02-09T11:35:11.702Z,102863.50
2023-02-09T11:38:01.752Z,102870.72
2023-02-09T11:40:48.442Z,102879.41
2023-02-09T11:43:28.691Z,102882.91
2023-02-09T11:46:11.173Z,102871.91
2023-02-09T11:48:50.429Z,102874.31
2023-02-09T11:51:20.172Z,102881.91
2023-02-09T11:53:55.934Z,102867.78
2023-02-09T11:56:27.685Z,102867.84
2023-02-09T11:58:57.381Z,102863.50
2023-02-09T12:01:44.722Z,102858.50
2023-02-09T12:04:18.648Z,102855.88
2023-02-09T12:06:49.006Z,102865.69
2023-02-09T12:09:18.936Z,102858.50
2023-02-09T12:12:00.148Z,102853.75
2023-02-09T12:14:47.953Z,102856.88
2023-02-09T12:17:18.703Z,102858.00
2023-02-09T12:19:46.723Z,102855.31
2023-02-09T12:22:35.828Z,102857.03
2023-02-09T12:25:18.853Z,102849.97
2023-02-09T12:28:24.254Z,102852.13
2023-02-09T12:30:51.279Z,102843.91
2023-02-09T12:33:25.117Z,102845.78
2023-02-09T12:36:02.795Z,102840.16
2023-02-09T12:38:56.369Z,102835.16
2023-02-09T12:41:30.485Z,102845.94
2023-02-09T12:44:09.252Z,102831.19
2023-02-09T12:46:45.316Z,102826.84
2023-02-09T12:49:11.969Z,102824.97
2023-02-09T12:51:47.764Z,102816.28
2023-02-09T12:54:52.084Z,102818.19
2023-02-09T12:57:26.081Z,102819.31
2023-02-09T12:59:56.403Z,102832.84
2023-02-09T13:02:35.932Z,102831.97
2023-02-09T13:05:22.364Z,102824.91
2023-02-09T13:07:56.865Z,102826.56
2023-02-09T13:10:37.874Z,102823.84
2023-02-09T13:13:17.384Z,102834.72
2023-02-09T13:16:05.449Z,102834.72
2023-02-09T13:18:41.349Z,102842.72
2023-02-09T13:21:36.133Z,102838.09
2023-02-09T13:24:08.440Z,102834.69
2023-02-09T13:26:37.275Z,102842.53
2023-02-09T13:29:21.001Z,102846.38
2023-02-09T13:32:12.542Z,102844.09
2023-02-09T13:34:46.756Z,102841.16
2023-02-09T13:37:44.866Z,102852.25
2023-02-09T13:40:14.808Z,102849.91
2023-02-09T13:42:53.383Z,102844.31
2023-02-09T13:45:20.483Z,102844.97
2023-02-09T13:47:47.665Z,102840.13
2023-02-09T13:50:19.768Z,102832.50
2023-02-09T13:52:46.428Z,102818.91
2023-02-09T13:55:23.737Z,102806.44
2023-02-09T13:57:59.367Z,102809.06
2023-02-09T14:00:28.621Z,102814.94
2023-02-09T14:03:12.610Z,102799.06
2023-02-09T14:05:57.432Z,102793.69
2023-02-09T14:08:25.297Z,102800.41
2023-02-09T14:11:20.996Z,102810.88
2023-02-09T14:13:52.727Z,102816.28
2023-02-09T14:16:26.769Z,102816.34
2023-02-09T14:18:53.443Z,102814.59
2023-02-09T14:21:37.515Z,102807.63
2023-02-09T14:24:16.842Z,102790.63
2023-02-09T14:27:08.983Z,102787.75
2023-02-09T14:29:36.614Z,102795.38
2023-02-09T14:32:32.091Z,102807.56
2023-02-09T14:35:00.770Z,102813.56
2023-02-09T14:37:29.771Z,102827.47
2023-02-09T14:40:00.770Z,102831.09
2023-02-09T14:42:28.743Z,102835.56
2023-02-09T14:44:59.335Z,102843.44
2023-02-09T14:47:37.681Z,102830.88
2023-02-09T14:50:13.774Z,102832.56
2023-02-09T14:52:46.857Z,102847.69
2023-02-09T14:55:19.660Z,102844.97
2023-02-09T14:57:46.587Z,102837.38
2023-02-09T15:00:21.867Z,102830.34
2023-02-09T15:02:50.081Z,102824.09
2023-02-09T15:05:16.889Z,102828.16
2023-02-09T15:07:47.166Z,102826.78
2023-02-09T15:10:20.259Z,102823.06
2023-02-09T15:12:47.029Z,102815.97
2023-02-09T15:15:16.514Z,102805.59
2023-02-09T15:17:43.343Z,102793.88
2023-02-09T15:20:13.973Z,102792.78
2023-02-09T15:22:40.767Z,102794.13
2023-02-09T15:25:07.438Z,102791.34
2023-02-09T15:27:51.312Z,102807.06
2023-02-09T15:30:24.533Z,102806.25
2023-02-09T15:32:51.250Z,102812.41
2023-02-09T15:35:20.115Z,102804.28
2023-02-09T15:37:49.391Z,102805.22
2023-02-09T15:40:45.997Z,102809.25
2023-02-09T15:43:36.826Z,102802.91
2023-02-09T15:46:22.259Z,102810.63
2023-02-09T15:48:54.072Z,102793.06
2023-02-09T15:51:21.756Z,102797.75
2023-02-09T15:53:48.444Z,102798.84
2023-02-09T15:56:15.481Z,102777.88
2023-02-09T15:58:44.409Z,102777.59
2023-02-09T16:01:15.660Z,102769.13
2023-02-09T16:03:42.971Z,102778.38
2023-02-09T16:06:21.701Z,102797.28
2023-02-09T16:08:49.076Z,102792.97
2023-02-09T16:11:25.267Z,102789.44
2023-02-09T16:13:51.945Z,102782.28
2023-02-09T16:16:18.737Z,102777.91
2023-02-09T16:18:46.578Z,102774.88
2023-02-09T16:21:22.149Z,102757.41
2023-02-09T16:23:49.082Z,102765.78
2023-02-09T16:26:15.836Z,102772.53
2023-02-09T16:28:42.589Z,102771.63
2023-02-09T16:31:10.453Z,102781.13
2023-02-09T16:33:38.891Z,102793.34
2023-02-09T16:36:13.061Z,102796.81
2023-02-09T16:38:40.062Z,102794.13
2023-02-09T16:41:26.808Z,102795.09
2023-02-09T16:43:53.490Z,102797.88
2023-02-09T16:46:20.157Z,102794.34
2023-02-09T16:48:47.101Z,102797.53
2023-02-09T16:51:15.144Z,102799.63
2023-02-09T16:53:47.884Z,102800.50
2023-02-09T16:56:15.660Z,102808.41
2023-02-09T16:58:43.281Z,102804.50
2023-02-09T17:01:22.424Z,102814.97
2023-02-09T17:03:54.492Z,102821.94
2023-02-09T17:06:24.434Z,102826.81
2023-02-09T17:08:51.535Z,102822.41
2023-02-09T17:11:20.635Z,102822.25
2023-02-09T17:13:47.543Z,102827.28
2023-02-09T17:16:24.096Z,102823.66
2023-02-09T17:18:52.655Z,102834.97
2023-02-09T17:21:25.408Z,102844.47
2023-02-09T17:23:52.763Z,102833.97
2023-02-09T17:26:20.034Z,102829.44
2023-02-09T17:28:46.901Z,102834.47
2023-02-09T17:31:17.992Z,102834.19
2023-02-09T17:33:46.844Z,102820.63
2023-02-09T17:36:29.589Z,102823.88
2023-02-09T17:38:58.788Z,102819.81
2023-02-09T17:41:33.082Z,102826.69
2023-02-09T17:44:22.289Z,102835.47
2023-02-09T17:46:55.736Z,102829.59
2023-02-09T17:49:22.535Z,102835.88
2023-02-09T17:51:49.500Z,102835.66
2023-02-09T17:54:18.940Z,102845.53
2023-02-09T17:56:45.796Z,102846.31
2023-02-09T17:59:13.456Z,102844.47
2023-02-09T18:01:46.105Z,102831.34
2023-02-09T18:04:21.353Z,102838.28
2023-02-09T18:06:48.360Z,102829.66
2023-02-09T18:09:15.363Z,102829.97
2023-02-09T18:11:44.955Z,102833.69
2023-02-09T18:14:16.300Z,102829.09
2023-02-09T18:16:43.405Z,102835.31
2023-02-09T18:19:12.177Z,102832.53
2023-02-09T18:21:47.184Z,102842.34
2023-02-09T18:24:13.937Z,102845.41
2023-02-09T18:26:41.002Z,102835.75
2023-02-09T18:29:07.725Z,102838.38
2023-02-09T18:31:34.569Z,102846.84
2023-02-09T18:34:02.490Z,102844.47
2023-02-09T18:36:29.218Z,102837.44
2023-02-09T18:38:56.016Z,102830.66
2023-02-09T18:41:23.822Z,102829.03
2023-02-09T18:43:52.617Z,102834.75
2023-02-09T18:46:20.699Z,102830.72
2023-02-09T18:48:47.558Z,102831.88
2023-02-09T18:51:14.679Z,102821.22
2023-02-09T18:53:42.617Z,102816.97
2023-02-09T18:56:16.572Z,102818.38
2023-02-09T18:58:43.229Z,102811.63
2023-02-09T19:01:11.673Z,102813.16
2023-02-09T19:03:41.483Z,102820.34
2023-02-09T19:06:12.081Z,102817.63
2023-02-09T19:08:39.731Z,102822.31
2023-02-09T19:11:07.133Z,102823.72
2023-02-09T19:13:37.657Z,102827.41
2023-02-09T19:16:04.387Z,102823.50
2023-02-09T19:18:31.704Z,102830.16
2023-02-09T19:20:58.340Z,102821.75
2023-02-09T19:23:25.268Z,102823.63
2023-02-09T19:26:01.870Z,102821.59
2023-02-09T19:28:28.513Z,102817.72
2023-02-09T19:30:55.299Z,102822.97
2023-02-09T19:33:23.546Z,102819.13
2023-02-09T19:35:59.873Z,102830.78
2023-02-09T19:38:26.909Z,102837.06
2023-02-09T19:41:08.510Z,102831.78
2023-02-09T19:43:38.614Z,102824.16
2023-02-09T19:46:05.823Z,102833.53
2023-02-09T19:48:32.706Z,102830.13
2023-02-09T19:50:59.727Z,102832.81
2023-02-09T19:53:26.925Z,102825.66
2023-02-09T19:55:54.026Z,102824.94
2023-02-09T19:58:23.699Z,102820.56
2023-02-09T20:00:51.758Z,102820.25
2023-02-09T20:03:18.836Z,102826.38
2023-02-09T20:05:46.237Z,102814.25
2023-02-09T20:08:14.902Z,102808.69
2023-02-09T20:10:41.883Z,102808.97
2023-02-09T20:13:09.154Z,102808.91
2023-02-09T20:15:36.259Z,102806.16
2023-02-09T20:18:03.030Z,102818.69
2023-02-09T20:20:29.703Z,102813.78
2023-02-09T20:22:56.320Z,102823.47
2023-02-09T20:25:23.062Z,102824.34
2023-02-09T20:27:52.678Z,102823.41
2023-02-09T20:30:19.398Z,102817.06
2023-02-09T20:32:46.104Z,102828.41
2023-02-09T20:35:12.776Z,102831.28
2023-02-09T20:37:41.953Z,102821.13
2023-02-09T20:40:11.526Z,102824.84
2023-02-09T20:42:57.477Z,102827.41
2023-02-09T20:45:43.123Z,102835.59
2023-02-09T20:48:09.870Z,102830.25
2023-02-09T20:50:40.519Z,102825.66
2023-02-09T20:53:07.279Z,102823.41
2023-02-09T20:55:34.187Z,102826.84
2023-02-09T20:58:00.897Z,102825.72
2023-02-09T21:00:28.009Z,102829.59
2023-02-09T21:02:54.794Z,102827.97
2023-02-09T21:05:21.487Z,102829.47
2023-02-09T21:07:50.512Z,102832.63
2023-02-09T21:10:17.238Z,102831.78
2023-02-09T21:12:43.992Z,102834.34
2023-02-09T21:15:10.732Z,102843.06
2023-02-09T21:17:38.206Z,102837.66
2023-02-09T21:20:06.374Z,102839.16
2023-02-09T21:22:33.097Z,102845.09
2023-02-09T21:24:59.820Z,102851.56
2023-02-09T21:27:26.700Z,102847.91
2023-02-09T21:29:53.720Z,102857.50
2023-02-09T21:32:20.461Z,102855.78
2023-02-09T21:34:50.250Z,102865.13
2023-02-09T21:37:17.447Z,102853.94
2023-02-09T21:39:44.400Z,102858.03
2023-02-09T21:42:26.311Z,102853.44
2023-02-09T21:44:55.035Z,102856.75
2023-02-09T21:47:35.623Z,102865.59
2023-02-09T21:50:03.157Z,102864.88
2023-02-09T21:52:34.665Z,102860.34
2023-02-09T21:55:01.571Z,102864.00
2023-02-09T21:57:28.337Z,102851.75
2023-02-09T21:59:55.900Z,102856.06
2023-02-09T22:02:22.602Z,102842.94
2023-02-09T22:04:50.311Z,102841.56
2023-02-09T22:07:17.004Z,102843.97
2023-02-09T22:09:43.819Z,102850.56
2023-02-09T22:12:10.527Z,102849.13
2023-02-09T22:14:37.393Z,102851.31
2023-02-09T22:17:04.125Z,102855.72
2023-02-09T22:19:31.778Z,102854.81
2023-02-09T22:21:58.530Z,102856.50
2023-02-09T22:24:28.346Z,102862.75
2023-02-09T22:26:55.029Z,102868.09
2023-02-09T22:29:21.829Z,102869.38
2023-02-09T22:31:48.598Z,102868.03
2023-02-09T22:34:15.797Z,102861.28
2023-02-09T22:36:42.444Z,102868.75
2023-02-09T22:39:09.642Z,102861.06
2023-02-09T22:41:36.680Z,102871.56
2023-02-09T22:44:08.507Z,102864.31
2023-02-09T22:46:37.308Z,102871.22
2023-02-09T22:49:09.049Z,102871.09
2023-02-09T22:51:36.367Z,102870.19
2023-02-09T22:54:04.806Z,102886.09
2023-02-09T22:56:31.740Z,102883.56
2023-02-09T22:59:00.415Z,102884.97
2023-02-09T23:01:27.502Z,102881.56
2023-02-09T23:03:54.910Z,102890.94
2023-02-09T23:06:27.379Z,102880.75
2023-02-09T23:09:05.835Z,102885.50
2023-02-09T23:11:32.547Z,102875.97
2023-02-09T23:14:08.960Z,102870.19
2023-02-09T23:16:36.846Z,102877.16
2023-02-09T23:19:06.002Z,102881.25
2023-02-09T23:21:34.893Z,102874.66
2023-02-09T23:24:01.556Z,102884.09
2023-02-09T23:26:28.492Z,102872.56
2023-02-09T23:28:57.578Z,102863.50
2023-02-09T23:31:24.299Z,102868.38
2023-02-09T23:33:51.087Z,102873.00
2023-02-09T23:36:20.346Z,102882.63
2023-02-09T23:38:47.708Z,102882.97
2023-02-09T23:41:16.500Z,102888.16
2023-02-09T23:43:43.728Z,102888.41
2023-02-09T23:46:15.658Z,102886.03
2023-02-09T23:48:42.387Z,102876.25
2023-02-09T23:51:12.700Z,102881.91
2023-02-09T23:53:39.399Z,102879.19
2023-02-09T23:56:07.528Z,102883.41
2023-02-09T23:58:36.465Z,102886.81
